Time;durP1;ratioP1;P1;durP2;ratioP2;P2;SDS_P1;SDS_P2;PMS_P1;PMS_P2;Temp;Humidity;BMP_temperature;BMP_pressure;BME280_temperature;BME280_humidity;BME280_pressure;Samples;Min_cycle;Max_cycle;Signal;HPM_P1;HPM_P2
2023/05/07 00:00:44;;;;;;;38.85;31.15;;;14.00;99.90;;;;;;4889042;29;37581;-79
2023/05/07 00:03:11;;;;;;;36.42;32.38;;;14.00;99.90;;;;;;4908771;29;38193;-79
2023/05/07 00:05:37;;;;;;;35.72;31.17;;;14.00;99.90;;;;;;4893004;29;37049;-81
2023/05/07 00:08:07;;;;;;;38.72;32.40;;;14.10;99.90;;;;;;4889491;29;37583;-80
2023/05/07 00:10:33;;;;;;;43.05;33.92;;;14.00;99.90;;;;;;4908704;29;37830;-79
2023/05/07 00:13:00;;;;;;;42.25;34.28;;;14.00;99.90;;;;;;4913257;29;37956;-81
2023/05/07 00:15:26;;;;;;;41.10;34.25;;;14.00;99.90;;;;;;4910228;29;38745;-80
2023/05/07 00:17:53;;;;;;;43.50;34.20;;;14.00;99.90;;;;;;4905778;29;38730;-80
2023/05/07 00:20:19;;;;;;;40.50;34.08;;;14.10;99.90;;;;;;4907998;29;37919;-80
2023/05/07 00:22:45;;;;;;;40.15;35.35;;;14.00;99.90;;;;;;4914185;29;37436;-80
2023/05/07 00:25:11;;;;;;;42.90;36.30;;;14.10;99.90;;;;;;4896800;29;38390;-79
2023/05/07 00:27:37;;;;;;;42.38;36.28;;;14.10;99.90;;;;;;4893877;29;39314;-79
2023/05/07 00:30:04;;;;;;;42.88;37.13;;;14.00;99.90;;;;;;4901436;29;39952;-79
2023/05/07 00:32:30;;;;;;;44.03;36.45;;;14.00;99.90;;;;;;4912311;29;38173;-79
2023/05/07 00:34:56;;;;;;;44.47;37.80;;;14.00;99.90;;;;;;4910814;29;38612;-79
2023/05/07 00:37:23;;;;;;;40.75;36.25;;;14.00;99.90;;;;;;4900214;29;36643;-80
2023/05/07 00:39:49;;;;;;;45.60;40.40;;;14.10;99.90;;;;;;4916653;29;37849;-79
2023/05/07 00:42:16;;;;;;;45.88;41.08;;;14.00;99.90;;;;;;4909768;29;38259;-79
2023/05/07 00:44:42;;;;;;;48.40;42.95;;;14.00;99.90;;;;;;4896312;29;38568;-80
2023/05/07 00:47:08;;;;;;;53.03;45.33;;;14.00;99.90;;;;;;4895280;29;37928;-79
2023/05/07 00:49:45;;;;;;;48.42;43.13;;;14.00;99.90;;;;;;4898343;29;37620;-79
2023/05/07 00:52:14;;;;;;;61.33;50.03;;;14.00;99.90;;;;;;4912376;29;38462;-80
2023/05/07 00:54:41;;;;;;;48.45;43.20;;;14.10;99.90;;;;;;4908367;29;37849;-79
2023/05/07 00:57:11;;;;;;;53.60;47.75;;;14.10;99.90;;;;;;4898220;29;36275;-79
2023/05/07 00:59:38;;;;;;;60.53;50.85;;;14.10;99.90;;;;;;4895875;29;38779;-79
2023/05/07 01:02:04;;;;;;;57.05;48.97;;;14.10;99.90;;;;;;5277076;23;37543;-79
2023/05/07 01:04:30;;;;;;;57.20;50.83;;;14.10;99.90;;;;;;4885773;29;38484;-79
2023/05/07 01:06:58;;;;;;;65.13;54.13;;;14.10;99.90;;;;;;4891908;29;36226;-79
2023/05/07 01:09:25;;;;;;;53.92;46.90;;;14.10;99.90;;;;;;4899893;29;37737;-80
2023/05/07 01:11:52;;;;;;;61.50;52.55;;;14.10;99.90;;;;;;4897035;29;38107;-80
2023/05/07 01:14:19;;;;;;;59.42;49.85;;;14.10;99.90;;;;;;4891293;29;38218;-80
2023/05/07 01:16:46;;;;;;;57.30;51.00;;;14.10;99.90;;;;;;4893329;29;38455;-80
2023/05/07 01:19:14;;;;;;;61.05;50.85;;;14.00;99.90;;;;;;4894050;29;39126;-80
2023/05/07 01:21:46;;;;;;;62.92;52.45;;;14.00;99.90;;;;;;4891595;29;38197;-80
2023/05/07 01:24:13;;;;;;;65.55;52.28;;;14.10;99.90;;;;;;4890032;29;38535;-80
2023/05/07 01:26:39;;;;;;;59.03;50.28;;;14.00;99.90;;;;;;4891706;29;37149;-80
2023/05/07 01:29:06;;;;;;;60.22;50.97;;;14.10;99.90;;;;;;4900824;29;39080;-80
2023/05/07 01:31:34;;;;;;;59.70;50.00;;;14.10;99.90;;;;;;4894541;29;38233;-80
2023/05/07 01:34:03;;;;;;;59.40;49.42;;;14.10;99.90;;;;;;4895358;29;38435;-80
2023/05/07 01:36:30;;;;;;;56.60;48.17;;;14.10;99.90;;;;;;4891916;29;48416;-79
2023/05/07 01:38:58;;;;;;;54.67;46.55;;;14.10;99.90;;;;;;4891991;29;38596;-79
2023/05/07 01:41:24;;;;;;;63.20;50.03;;;14.10;99.90;;;;;;4892227;29;38573;-80
2023/05/07 01:43:52;;;;;;;57.35;47.97;;;14.10;99.90;;;;;;4903783;29;38831;-80
2023/05/07 01:46:19;;;;;;;53.13;45.30;;;14.10;99.90;;;;;;4891065;29;36489;-80
2023/05/07 01:48:45;;;;;;;54.47;46.72;;;14.20;99.90;;;;;;4894804;29;38696;-80
2023/05/07 01:51:12;;;;;;;50.97;43.80;;;14.20;99.90;;;;;;4892983;29;38410;-80
2023/05/07 01:53:40;;;;;;;49.13;42.80;;;14.20;99.90;;;;;;4895482;29;37979;-80
2023/05/07 01:56:07;;;;;;;48.35;42.65;;;14.20;99.90;;;;;;4893424;29;36650;-80
2023/05/07 01:58:33;;;;;;;47.92;41.13;;;14.20;99.90;;;;;;4891561;29;37731;-79
2023/05/07 02:01:00;;;;;;;46.20;38.90;;;14.20;99.90;;;;;;4889868;29;38357;-79
2023/05/07 02:03:26;;;;;;;43.25;37.50;;;14.20;99.90;;;;;;4906711;29;39539;-79
2023/05/07 02:05:52;;;;;;;41.25;36.90;;;14.20;99.90;;;;;;4895337;29;37608;-80
2023/05/07 02:08:18;;;;;;;39.55;34.33;;;14.20;99.90;;;;;;4895436;29;37489;-80
2023/05/07 02:10:44;;;;;;;38.10;34.05;;;14.20;99.90;;;;;;4895558;29;39337;-80
2023/05/07 02:13:10;;;;;;;40.00;35.83;;;14.20;99.90;;;;;;4892318;29;38133;-80
2023/05/07 02:15:36;;;;;;;44.03;36.58;;;14.20;99.90;;;;;;4888139;29;37192;-80
2023/05/07 02:18:08;;;;;;;37.22;33.35;;;14.30;99.90;;;;;;4890451;29;38648;-80
2023/05/07 02:21:05;;;;;;;38.45;34.20;;;14.30;99.90;;;;;;4897184;29;40063;-80
2023/05/07 02:24:01;;;;;;;38.60;33.92;;;14.30;99.90;;;;;;4885579;29;48965;-79
2023/05/07 02:26:28;;;;;;;35.20;31.35;;;14.30;99.90;;;;;;4884936;29;47084;-80
2023/05/07 02:29:05;;;;;;;33.75;29.67;;;14.30;99.90;;;;;;4899296;29;38829;-80
2023/05/07 02:31:33;;;;;;;36.30;32.38;;;14.40;99.90;;;;;;4895727;29;47251;-79
2023/05/07 02:34:00;;;;;;;33.88;30.10;;;14.30;99.90;;;;;;4895734;29;38513;-80
2023/05/07 02:36:26;;;;;;;32.40;28.98;;;14.30;99.90;;;;;;4881674;29;37343;-80
2023/05/07 02:38:52;;;;;;;36.38;32.47;;;14.30;99.90;;;;;;4897536;29;39952;-80
2023/05/07 02:41:19;;;;;;;33.67;30.05;;;14.30;99.90;;;;;;4895463;29;37881;-79
2023/05/07 02:43:46;;;;;;;36.47;31.58;;;14.30;99.90;;;;;;4894361;29;37448;-80
2023/05/07 02:46:12;;;;;;;31.35;28.00;;;14.30;99.90;;;;;;4880906;29;36316;-79
2023/05/07 02:48:38;;;;;;;31.95;28.48;;;14.30;99.90;;;;;;4893665;29;37697;-80
2023/05/07 02:51:05;;;;;;;31.63;28.33;;;14.30;99.90;;;;;;4889072;29;38013;-80
2023/05/07 02:53:31;;;;;;;35.53;31.73;;;14.30;99.90;;;;;;4893828;29;37311;-81
2023/05/07 02:56:00;;;;;;;32.55;29.20;;;14.30;99.90;;;;;;4887813;29;37554;-79
2023/05/07 02:58:26;;;;;;;31.08;27.73;;;14.30;99.90;;;;;;4902301;29;37767;-80
2023/05/07 03:00:54;;;;;;;30.10;26.90;;;14.30;99.90;;;;;;4906017;29;38078;-80
2023/05/07 03:03:20;;;;;;;31.80;27.88;;;14.30;99.90;;;;;;4889062;29;38664;-79
2023/05/07 03:05:46;;;;;;;28.38;25.45;;;14.30;99.90;;;;;;4883561;29;36503;-80
2023/05/07 03:08:13;;;;;;;29.55;25.85;;;14.40;99.90;;;;;;4892511;29;38624;-80
2023/05/07 03:10:39;;;;;;;28.50;25.58;;;14.30;99.90;;;;;;4904287;29;39838;-80
2023/05/07 03:13:05;;;;;;;29.38;26.25;;;14.30;99.90;;;;;;4890007;29;37164;-80
2023/05/07 03:15:31;;;;;;;26.85;22.67;;;14.30;99.90;;;;;;4901362;29;36394;-80
2023/05/07 03:17:57;;;;;;;24.92;22.35;;;14.30;99.90;;;;;;4890612;29;38243;-80
2023/05/07 03:20:23;;;;;;;24.95;22.52;;;14.30;99.90;;;;;;4889694;29;37578;-80
2023/05/07 03:22:50;;;;;;;23.20;20.75;;;14.30;99.90;;;;;;4892776;29;37749;-80
2023/05/07 03:25:16;;;;;;;23.20;20.88;;;14.30;99.90;;;;;;4885809;29;37871;-80
2023/05/07 03:27:42;;;;;;;21.90;19.48;;;14.20;99.90;;;;;;4890321;29;38575;-80
2023/05/07 03:30:09;;;;;;;25.00;20.88;;;14.20;99.90;;;;;;4894659;29;38558;-80
2023/05/07 03:32:35;;;;;;;23.60;20.40;;;14.20;99.90;;;;;;4906579;29;35865;-80
2023/05/07 03:35:02;;;;;;;21.83;19.38;;;14.20;99.90;;;;;;4890063;29;34728;-80
2023/05/07 03:37:28;;;;;;;19.75;17.75;;;14.20;99.90;;;;;;4892044;29;38371;-80
2023/05/07 03:39:54;;;;;;;18.45;16.65;;;14.20;99.90;;;;;;4887912;29;37711;-80
2023/05/07 03:42:21;;;;;;;17.42;15.63;;;14.20;99.90;;;;;;4890264;29;37510;-79
2023/05/07 03:44:47;;;;;;;19.38;17.33;;;14.20;99.90;;;;;;4904591;29;37453;-80
2023/05/07 03:47:13;;;;;;;18.92;16.90;;;14.20;99.90;;;;;;4889467;29;37593;-80
2023/05/07 03:49:39;;;;;;;21.33;15.80;;;14.20;99.90;;;;;;4894588;29;37744;-80
2023/05/07 03:52:06;;;;;;;20.10;16.80;;;14.20;99.90;;;;;;4892195;29;37273;-80
2023/05/07 03:54:32;;;;;;;18.13;16.23;;;14.20;99.90;;;;;;4891061;29;37495;-80
2023/05/07 03:56:58;;;;;;;20.52;18.02;;;14.20;99.90;;;;;;4891444;29;39988;-80
2023/05/07 03:59:24;;;;;;;20.50;18.15;;;14.20;99.90;;;;;;4892402;29;37451;-80
2023/05/07 04:01:50;;;;;;;19.10;17.20;;;14.20;99.90;;;;;;4889407;29;38364;-79
2023/05/07 04:04:17;;;;;;;19.52;16.95;;;14.30;99.90;;;;;;4890161;29;36293;-81
2023/05/07 04:06:43;;;;;;;19.58;16.92;;;14.20;99.90;;;;;;4895799;29;38306;-80
2023/05/07 04:09:09;;;;;;;17.30;15.52;;;14.30;99.90;;;;;;4906888;29;37207;-79
2023/05/07 04:11:35;;;;;;;17.83;16.10;;;14.30;99.90;;;;;;4886567;29;36976;-80
2023/05/07 04:14:02;;;;;;;19.75;16.73;;;14.20;99.90;;;;;;4891175;29;37676;-80
2023/05/07 04:16:28;;;;;;;18.67;16.73;;;14.20;99.90;;;;;;4891257;28;37809;-80
2023/05/07 04:18:54;;;;;;;22.60;17.25;;;14.20;99.90;;;;;;4894412;29;39058;-80
2023/05/07 04:21:21;;;;;;;19.17;15.98;;;14.20;99.90;;;;;;4886882;29;39089;-80
2023/05/07 04:23:47;;;;;;;18.48;15.40;;;14.20;99.90;;;;;;4888286;29;36725;-80
2023/05/07 04:26:15;;;;;;;20.30;17.08;;;14.20;99.90;;;;;;4887647;29;41084;-80
2023/05/07 04:28:41;;;;;;;17.85;15.38;;;14.20;99.90;;;;;;4907580;29;37178;-80
2023/05/07 04:31:07;;;;;;;18.05;16.13;;;14.20;99.90;;;;;;4890904;29;36947;-80
2023/05/07 04:33:33;;;;;;;17.80;15.95;;;14.20;99.90;;;;;;4888135;29;36283;-80
2023/05/07 04:36:03;;;;;;;19.02;16.95;;;14.20;99.90;;;;;;4889142;29;39915;-79
2023/05/07 04:38:31;;;;;;;16.77;14.82;;;14.20;99.90;;;;;;4881808;29;47600;-80
2023/05/07 04:41:02;;;;;;;18.45;16.65;;;14.20;99.90;;;;;;4887174;29;38414;-79
2023/05/07 04:43:28;;;;;;;16.50;14.90;;;14.20;99.90;;;;;;4885253;29;47113;-80
2023/05/07 04:45:54;;;;;;;19.80;17.70;;;14.30;99.90;;;;;;4902642;29;37818;-80
2023/05/07 04:48:20;;;;;;;18.25;16.15;;;14.30;99.90;;;;;;4886093;29;40543;-80
2023/05/07 04:50:50;;;;;;;18.48;16.63;;;14.30;99.90;;;;;;4892571;29;38301;-80
2023/05/07 04:53:17;;;;;;;18.73;16.58;;;14.30;99.90;;;;;;4890007;29;36057;-79
2023/05/07 04:55:44;;;;;;;17.88;16.00;;;14.40;99.90;;;;;;4902716;29;39126;-79
2023/05/07 04:58:11;;;;;;;19.33;16.15;;;14.40;99.90;;;;;;4890777;29;39330;-79
2023/05/07 05:00:39;;;;;;;19.58;17.48;;;14.40;99.90;;;;;;4885438;29;37292;-79
2023/05/07 05:03:06;;;;;;;17.15;15.32;;;14.40;99.90;;;;;;4890341;29;38229;-82
2023/05/07 05:05:33;;;;;;;17.15;15.52;;;14.40;99.90;;;;;;4892543;29;39041;-80
2023/05/07 05:07:59;;;;;;;18.42;15.02;;;14.40;99.90;;;;;;4892109;29;38558;-81
2023/05/07 05:10:25;;;;;;;19.35;16.45;;;14.40;99.90;;;;;;4891618;29;36850;-80
2023/05/07 05:12:51;;;;;;;16.77;14.00;;;14.40;99.90;;;;;;4906086;29;36297;-80
2023/05/07 05:15:17;;;;;;;18.65;15.93;;;14.50;99.90;;;;;;4893739;29;39586;-80
2023/05/07 05:17:44;;;;;;;16.85;15.23;;;14.50;99.90;;;;;;4890740;29;37940;-79
2023/05/07 05:20:11;;;;;;;18.50;15.07;;;14.50;99.90;;;;;;4892555;29;37898;-80
2023/05/07 05:22:37;;;;;;;15.85;14.25;;;14.50;99.90;;;;;;4906915;29;36289;-79
2023/05/07 05:25:04;;;;;;;17.05;15.25;;;14.50;99.90;;;;;;4886277;29;37777;-80
2023/05/07 05:27:30;;;;;;;17.48;15.65;;;14.50;99.90;;;;;;4901922;29;46986;-80
2023/05/07 05:29:56;;;;;;;17.92;14.35;;;14.60;99.90;;;;;;4892036;29;38113;-80
2023/05/07 05:32:22;;;;;;;17.55;15.63;;;14.60;99.90;;;;;;4895258;29;38391;-80
2023/05/07 05:34:49;;;;;;;19.02;15.30;;;14.60;99.90;;;;;;4894285;29;39342;-80
2023/05/07 05:37:15;;;;;;;16.83;15.07;;;14.60;99.90;;;;;;4907674;29;38597;-79
2023/05/07 05:39:42;;;;;;;17.20;15.32;;;14.70;99.90;;;;;;4909188;29;38286;-80
2023/05/07 05:42:08;;;;;;;21.67;17.05;;;14.70;99.90;;;;;;4909000;29;36557;-80
2023/05/07 05:44:34;;;;;;;17.08;15.38;;;14.80;99.90;;;;;;4908319;29;37912;-80
2023/05/07 05:47:00;;;;;;;17.48;15.68;;;14.80;99.90;;;;;;4893844;29;39517;-81
2023/05/07 05:49:26;;;;;;;18.63;16.75;;;14.90;99.90;;;;;;4896356;29;38129;-80
2023/05/07 05:51:52;;;;;;;17.55;15.70;;;14.90;99.90;;;;;;4890593;29;36374;-80
2023/05/07 05:54:18;;;;;;;17.48;15.80;;;15.00;99.90;;;;;;4892683;29;39733;-80
2023/05/07 05:56:44;;;;;;;20.48;16.73;;;15.00;99.90;;;;;;4895319;29;39101;-80
2023/05/07 05:59:10;;;;;;;18.48;16.45;;;15.10;99.90;;;;;;4891956;29;38522;-80
2023/05/07 06:01:37;;;;;;;17.35;15.48;;;15.10;99.90;;;;;;4899452;29;37297;-80
2023/05/07 06:04:03;;;;;;;18.45;16.48;;;15.10;99.90;;;;;;4895403;29;38045;-80
2023/05/07 06:06:30;;;;;;;18.60;16.45;;;15.20;99.90;;;;;;4897297;29;38871;-81
2023/05/07 06:08:57;;;;;;;18.60;16.63;;;15.20;99.90;;;;;;4895826;29;38305;-81
2023/05/07 06:11:24;;;;;;;17.00;15.07;;;15.30;99.90;;;;;;4891320;29;37070;-81
2023/05/07 06:13:50;;;;;;;19.80;15.60;;;15.30;99.90;;;;;;4893585;29;39494;-82
2023/05/07 06:16:16;;;;;;;19.30;15.95;;;15.30;99.90;;;;;;4892305;29;37917;-82
2023/05/07 06:18:42;;;;;;;17.67;15.82;;;15.30;99.90;;;;;;4910571;29;37146;-80
2023/05/07 06:21:09;;;;;;;17.33;15.50;;;15.40;99.90;;;;;;4892303;29;38929;-82
2023/05/07 06:23:35;;;;;;;16.67;14.95;;;15.50;99.90;;;;;;4894125;29;38626;-80
2023/05/07 06:26:01;;;;;;;17.88;15.30;;;15.50;99.90;;;;;;4890782;29;38399;-81
2023/05/07 06:28:27;;;;;;;18.65;15.27;;;15.60;99.90;;;;;;4891593;29;38367;-81
2023/05/07 06:30:53;;;;;;;17.25;15.43;;;15.70;99.90;;;;;;4891458;29;37482;-81
2023/05/07 06:33:20;;;;;;;14.93;13.38;;;15.80;99.90;;;;;;4888988;29;37723;-81
2023/05/07 06:35:46;;;;;;;17.90;14.15;;;15.80;99.90;;;;;;4888150;29;37392;-82
2023/05/07 06:38:12;;;;;;;15.80;14.18;;;15.90;99.90;;;;;;4898135;29;38531;-83
2023/05/07 06:40:38;;;;;;;15.82;14.07;;;15.90;99.90;;;;;;4898216;29;36038;-81
2023/05/07 06:43:05;;;;;;;15.68;13.93;;;16.00;99.90;;;;;;4887083;29;38962;-82
2023/05/07 06:45:31;;;;;;;16.38;14.57;;;16.30;99.90;;;;;;4886832;29;38205;-81
2023/05/07 06:47:57;;;;;;;15.05;13.05;;;16.70;99.90;;;;;;4885785;29;39520;-82
2023/05/07 06:50:23;;;;;;;15.68;13.85;;;16.80;99.90;;;;;;4881409;29;38143;-83
2023/05/07 06:52:49;;;;;;;14.75;13.25;;;16.90;99.90;;;;;;4893436;29;37898;-82
2023/05/07 06:55:15;;;;;;;14.48;12.13;;;17.10;99.90;;;;;;4893202;29;38440;-82
2023/05/07 06:57:41;;;;;;;16.48;13.63;;;17.40;99.90;;;;;;4904384;29;36972;-82
2023/05/07 07:00:09;;;;;;;14.18;12.23;;;17.70;99.90;;;;;;4905773;29;36569;-82
2023/05/07 07:02:36;;;;;;;13.55;11.50;;;17.70;99.90;;;;;;4884121;29;38583;-83
2023/05/07 07:05:03;;;;;;;17.77;13.00;;;17.60;99.90;;;;;;4892835;29;37827;-82
2023/05/07 07:07:30;;;;;;;17.02;13.65;;;17.40;99.90;;;;;;4891916;29;38162;-83
2023/05/07 07:09:56;;;;;;;14.82;12.60;;;17.30;99.90;;;;;;4887578;29;36449;-79
2023/05/07 07:12:24;;;;;;;13.93;12.43;;;17.40;99.90;;;;;;4886234;29;39503;-81
2023/05/07 07:14:50;;;;;;;13.88;12.30;;;17.50;99.90;;;;;;4885768;29;38543;-85
2023/05/07 07:17:16;;;;;;;13.88;12.00;;;17.50;99.90;;;;;;4882231;29;37040;-85
2023/05/07 07:19:42;;;;;;;16.48;11.27;;;17.50;99.90;;;;;;4888629;29;38267;-83
2023/05/07 07:22:08;;;;;;;12.20;10.85;;;17.50;99.90;;;;;;4889021;29;37979;-83
2023/05/07 07:24:34;;;;;;;14.15;10.38;;;17.60;99.90;;;;;;4879680;29;38328;-84
2023/05/07 07:27:01;;;;;;;12.02;9.60;;;18.10;99.90;;;;;;4887998;29;37158;-84
2023/05/07 07:29:27;;;;;;;10.93;8.93;;;18.40;99.90;;;;;;4889590;29;35823;-84
2023/05/07 07:31:53;;;;;;;11.88;8.52;;;18.90;99.90;;;;;;4890645;29;39318;-84
2023/05/07 07:34:19;;;;;;;10.48;9.10;;;19.30;99.90;;;;;;4890565;29;38568;-83
2023/05/07 07:36:45;;;;;;;11.38;8.32;;;19.70;99.90;;;;;;4886214;29;38419;-84
2023/05/07 07:39:11;;;;;;;12.65;8.13;;;19.80;99.90;;;;;;4875804;29;37904;-85
2023/05/07 07:41:37;;;;;;;8.02;7.25;;;19.70;99.90;;;;;;4902679;29;37998;-84
2023/05/07 07:44:08;;;;;;;9.95;7.45;;;19.40;99.90;;;;;;4886576;29;38736;-83
2023/05/07 07:46:34;;;;;;;9.00;7.13;;;18.90;99.90;;;;;;4889319;29;36080;-84
2023/05/07 07:49:00;;;;;;;9.48;7.65;;;19.20;99.90;;;;;;4891217;29;37480;-84
2023/05/07 07:51:26;;;;;;;8.00;7.15;;;19.40;99.90;;;;;;4879496;29;37588;-84
2023/05/07 07:53:52;;;;;;;11.05;7.90;;;19.30;99.90;;;;;;4890166;29;37326;-84
2023/05/07 07:56:18;;;;;;;10.27;7.75;;;19.10;99.90;;;;;;4902255;29;39067;-84
2023/05/07 07:58:45;;;;;;;10.25;7.50;;;19.10;99.90;;;;;;4891425;29;36293;-84
2023/05/07 08:01:12;;;;;;;8.48;7.60;;;19.00;99.90;;;;;;4891124;29;40008;-84
2023/05/07 08:03:38;;;;;;;11.00;7.72;;;19.10;99.90;;;;;;4899693;29;37799;-86
2023/05/07 08:06:05;;;;;;;11.02;8.18;;;19.00;99.90;;;;;;4892949;29;36973;-85
2023/05/07 08:08:31;;;;;;;12.60;7.93;;;18.70;99.90;;;;;;4892578;29;36961;-86
2023/05/07 08:10:57;;;;;;;10.70;8.75;;;18.80;99.90;;;;;;4889699;29;39789;-84
2023/05/07 08:13:24;;;;;;;11.95;9.35;;;18.90;99.90;;;;;;4889555;29;36851;-84
2023/05/07 08:15:50;;;;;;;11.52;9.77;;;18.60;99.90;;;;;;4885746;29;37000;-84
2023/05/07 08:18:16;;;;;;;15.43;10.77;;;18.60;99.90;;;;;;4882790;29;38688;-83
2023/05/07 08:20:42;;;;;;;10.43;9.25;;;18.80;99.90;;;;;;4886977;29;39244;-86
2023/05/07 08:23:08;;;;;;;11.05;9.48;;;18.80;99.90;;;;;;4880124;29;37111;-81
2023/05/07 08:25:34;;;;;;;14.82;11.27;;;19.00;99.90;;;;;;4888210;29;37326;-81
2023/05/07 08:28:01;;;;;;;12.20;10.50;;;19.00;99.90;;;;;;4909908;29;37201;-81
2023/05/07 08:30:27;;;;;;;14.13;10.18;;;18.70;99.90;;;;;;4887939;29;48730;-81
2023/05/07 08:32:53;;;;;;;12.45;10.35;;;18.60;99.90;;;;;;4889637;29;37152;-81
2023/05/07 08:35:20;;;;;;;22.65;11.23;;;18.70;99.90;;;;;;4889078;29;37030;-81
2023/05/07 08:37:46;;;;;;;16.50;11.18;;;18.90;99.90;;;;;;4892221;29;36330;-80
2023/05/07 08:40:12;;;;;;;20.00;10.77;;;19.30;99.90;;;;;;4888091;29;39843;-79
2023/05/07 08:42:41;;;;;;;15.23;10.70;;;19.70;99.90;;;;;;4892821;28;37612;-79
2023/05/07 08:45:11;;;;;;;12.43;10.68;;;20.10;99.90;;;;;;4881839;29;37469;-80
2023/05/07 08:47:46;;;;;;;15.50;12.15;;;19.80;99.90;;;;;;4897551;29;36699;-80
2023/05/07 08:50:12;;;;;;;11.38;9.93;;;19.20;99.90;;;;;;4884724;28;41211;-80
2023/05/07 08:52:42;;;;;;;11.80;9.93;;;19.10;99.90;;;;;;4904690;29;39046;-83
2023/05/07 08:55:09;;;;;;;19.83;11.32;;;19.50;99.90;;;;;;4886745;29;35886;-83
2023/05/07 08:57:35;;;;;;;27.52;11.10;;;19.70;99.90;;;;;;4891224;29;36493;-82
2023/05/07 09:00:03;;;;;;;13.75;10.13;;;20.00;99.90;;;;;;4890602;29;38824;-82
2023/05/07 09:02:30;;;;;;;46.05;10.75;;;19.60;99.90;;;;;;4885538;29;40438;-83
2023/05/07 09:04:56;;;;;;;15.25;8.80;;;19.20;99.90;;;;;;4889533;29;38427;-89
2023/05/07 09:07:22;;;;;;;22.45;9.93;;;19.30;99.90;;;;;;4895527;29;38659;-85
2023/05/07 09:09:48;;;;;;;20.35;10.45;;;19.70;99.90;;;;;;4887365;29;39307;-82
2023/05/07 09:12:14;;;;;;;10.35;9.18;;;19.60;99.90;;;;;;4887824;29;37425;-80
2023/05/07 09:14:40;;;;;;;15.15;8.70;;;20.00;99.90;;;;;;4888119;29;37399;-80
2023/05/07 09:17:06;;;;;;;12.70;9.45;;;19.90;99.90;;;;;;4896089;29;36894;-83
2023/05/07 09:19:33;;;;;;;12.88;8.95;;;20.00;99.90;;;;;;4887971;29;38749;-81
2023/05/07 09:22:03;;;;;;;12.15;8.75;;;20.20;99.90;;;;;;4885518;29;38097;-81
2023/05/07 09:24:34;;;;;;;11.68;8.27;;;20.40;99.90;;;;;;4883812;29;48254;-84
2023/05/07 09:27:02;;;;;;;9.13;7.95;;;20.50;99.90;;;;;;4895538;29;37375;-84
2023/05/07 09:29:37;;;;;;;14.13;8.95;;;20.60;99.90;;;;;;4892825;29;48604;-84
2023/05/07 09:32:05;;;;;;;9.68;7.95;;;20.20;99.90;;;;;;4903012;29;37546;-84
2023/05/07 09:34:31;;;;;;;11.73;10.13;;;20.20;99.90;;;;;;4892900;29;37405;-85
2023/05/07 09:37:07;;;;;;;7.85;7.13;;;19.80;99.90;;;;;;4891242;29;36231;-83
2023/05/07 09:39:45;;;;;;;9.90;7.97;;;19.80;99.90;;;;;;4895533;29;47323;-88
2023/05/07 09:42:12;;;;;;;8.60;7.18;;;19.60;99.90;;;;;;4908982;29;35853;-87
2023/05/07 09:44:39;;;;;;;11.77;8.40;;;19.70;99.90;;;;;;4889056;29;37300;-84
2023/05/07 09:47:06;;;;;;;10.35;9.05;;;19.70;99.90;;;;;;4890215;29;36437;-85
2023/05/07 09:49:36;;;;;;;13.35;10.32;;;20.00;99.90;;;;;;4898685;29;39238;-86
2023/05/07 09:52:05;;;;;;;14.70;10.52;;;19.90;99.90;;;;;;4890001;29;38435;-83
2023/05/07 09:54:33;;;;;;;12.48;11.18;;;20.20;99.90;;;;;;4890569;29;39041;-87
2023/05/07 09:57:04;;;;;;;13.93;10.50;;;20.30;99.90;;;;;;4885233;29;37442;-85
2023/05/07 09:59:32;;;;;;;11.10;9.82;;;20.20;99.90;;;;;;4903826;29;48686;-83
2023/05/07 10:02:01;;;;;;;32.97;12.48;;;20.20;99.90;;;;;;4888293;29;39442;-83
2023/05/07 10:04:27;;;;;;;19.08;10.35;;;20.50;99.90;;;;;;4879772;29;47074;-82
2023/05/07 10:06:55;;;;;;;27.08;11.43;;;20.80;99.90;;;;;;4883471;29;38642;-80
2023/05/07 10:09:22;;;;;;;93.13;17.02;;;21.20;99.90;;;;;;4888148;29;38058;-81
2023/05/07 10:11:52;;;;;;;14.07;8.88;;;21.40;99.90;;;;;;4888127;29;38821;-80
2023/05/07 10:14:21;;;;;;;11.43;7.50;;;22.10;99.90;;;;;;4886218;29;37075;-81
2023/05/07 10:16:48;;;;;;;28.85;10.05;;;21.80;99.90;;;;;;4889314;29;37216;-81
2023/05/07 10:19:14;;;;;;;23.90;9.48;;;21.40;99.90;;;;;;4887926;29;38789;-81
2023/05/07 10:21:51;;;;;;;14.63;8.23;;;21.70;99.90;;;;;;4886607;29;38532;-81
2023/05/07 10:24:25;;;;;;;13.88;8.20;;;21.70;99.90;;;;;;4895795;29;36969;-81
2023/05/07 10:26:52;;;;;;;21.80;8.75;;;21.50;99.90;;;;;;4901373;29;36434;-81
2023/05/07 10:29:25;;;;;;;14.73;7.60;;;21.10;99.90;;;;;;4884002;29;39591;-83
2023/05/07 10:32:17;;;;;;;10.88;8.63;;;21.30;99.90;;;;;;4893714;29;37283;-81
2023/05/07 10:34:46;;;;;;;10.27;7.88;;;21.30;99.90;;;;;;4880258;29;47199;-80
2023/05/07 10:37:13;;;;;;;12.55;7.88;;;21.70;99.90;;;;;;4885833;29;38236;-81
2023/05/07 10:39:40;;;;;;;8.60;6.90;;;21.60;99.90;;;;;;4884909;29;37769;-81
2023/05/07 10:42:13;;;;;;;9.07;7.47;;;21.90;99.90;;;;;;4885283;29;38231;-81
2023/05/07 10:44:39;;;;;;;10.07;7.18;;;22.00;99.90;;;;;;4886718;29;39123;-83
2023/05/07 10:47:10;;;;;;;10.07;6.55;;;21.30;99.90;;;;;;4881619;29;35929;-83
2023/05/07 10:49:45;;;;;;;11.27;7.40;;;21.40;99.90;;;;;;4882030;29;37717;-83
2023/05/07 10:52:15;;;;;;;11.13;7.50;;;21.50;99.90;;;;;;4901404;29;37287;-84
2023/05/07 10:54:43;;;;;;;13.57;6.68;;;21.50;99.90;;;;;;4898529;29;38572;-81
2023/05/07 10:57:31;;;;;;;9.63;6.97;;;22.10;99.90;;;;;;4885529;29;38696;-81
2023/05/07 10:59:58;;;;;;;11.20;7.82;;;22.40;99.90;;;;;;4901329;29;39236;-81
2023/05/07 11:02:59;;;;;;;11.82;7.72;;;21.70;99.90;;;;;;4884764;29;37888;-81
2023/05/07 11:05:27;;;;;;;11.67;7.07;;;21.70;99.90;;;;;;4898446;29;36873;-81
2023/05/07 11:08:01;;;;;;;9.40;7.10;;;22.00;99.90;;;;;;4887059;29;36188;-83
2023/05/07 11:10:52;;;;;;;8.65;6.25;;;22.30;99.90;;;;;;4882421;29;47217;-82
2023/05/07 11:13:38;;;;;;;7.85;6.43;;;22.60;99.90;;;;;;4897434;29;38774;-82
2023/05/07 11:16:15;;;;;;;10.10;8.18;;;22.40;99.90;;;;;;4883638;29;38589;-81
2023/05/07 11:18:53;;;;;;;12.48;7.78;;;22.10;99.90;;;;;;4889593;29;36819;-82
2023/05/07 11:21:33;;;;;;;11.07;7.63;;;21.70;99.90;;;;;;4877158;29;40769;-82
2023/05/07 11:24:00;;;;;;;10.40;7.75;;;21.60;99.90;;;;;;4885218;29;37529;-82
2023/05/07 11:26:28;;;;;;;10.18;7.47;;;21.70;99.90;;;;;;4884035;29;47323;-82
2023/05/07 11:28:54;;;;;;;10.95;7.88;;;22.10;99.90;;;;;;4885989;29;37074;-82
2023/05/07 11:31:23;;;;;;;31.33;9.45;;;22.30;99.90;;;;;;4883315;29;38342;-82
2023/05/07 11:33:50;;;;;;;11.80;7.97;;;22.10;99.90;;;;;;4888430;29;38011;-81
2023/05/07 11:36:16;;;;;;;10.60;8.73;;;21.90;99.90;;;;;;4883264;29;38588;-82
2023/05/07 11:38:42;;;;;;;9.88;8.00;;;21.40;99.90;;;;;;4884982;29;36160;-82
2023/05/07 11:41:08;;;;;;;9.48;8.15;;;21.60;99.90;;;;;;4887207;29;37893;-82
2023/05/07 11:43:35;;;;;;;12.95;8.63;;;21.70;99.90;;;;;;4888419;29;37354;-81
2023/05/07 11:46:20;;;;;;;11.15;8.20;;;21.60;99.90;;;;;;4887387;29;37970;-82
2023/05/07 11:48:46;;;;;;;11.23;7.90;;;21.40;99.90;;;;;;4894161;29;36123;-83
2023/05/07 11:51:13;;;;;;;9.88;7.60;;;21.60;99.90;;;;;;4884374;29;39164;-81
2023/05/07 11:53:41;;;;;;;7.82;6.25;;;22.10;99.90;;;;;;4878425;29;38191;-83
2023/05/07 11:56:08;;;;;;;11.70;7.57;;;22.00;99.90;;;;;;4887089;29;36989;-81
2023/05/07 11:58:34;;;;;;;8.10;6.03;;;22.00;99.90;;;;;;4898698;29;36114;-80
2023/05/07 12:01:00;;;;;;;11.00;7.53;;;21.90;99.90;;;;;;4878782;29;40274;-85
2023/05/07 12:03:27;;;;;;;11.85;8.23;;;22.10;99.90;;;;;;4895491;29;37851;-84
2023/05/07 12:05:53;;;;;;;10.85;7.65;;;22.10;99.90;;;;;;4881715;29;38033;-80
2023/05/07 12:08:21;;;;;;;11.85;6.93;;;22.00;99.90;;;;;;4878426;29;36943;-82
2023/05/07 12:10:49;;;;;;;10.85;8.77;;;22.60;99.90;;;;;;4885599;29;38500;-82
2023/05/07 12:13:20;;;;;;;8.98;6.53;;;22.50;99.90;;;;;;4885242;29;38448;-82
2023/05/07 12:15:50;;;;;;;11.67;7.40;;;22.00;99.90;;;;;;4885238;29;37021;-81
2023/05/07 12:18:17;;;;;;;10.10;7.53;;;21.70;99.90;;;;;;4888282;29;36607;-81
2023/05/07 12:20:43;;;;;;;16.13;9.55;;;21.70;99.90;;;;;;4899301;29;37797;-81
2023/05/07 12:23:10;;;;;;;12.63;10.55;;;21.40;99.90;;;;;;4892976;29;37967;-82
2023/05/07 12:25:37;;;;;;;11.73;9.27;;;21.70;99.90;;;;;;4893886;29;36077;-82
2023/05/07 12:28:05;;;;;;;11.98;8.75;;;21.90;99.90;;;;;;4894470;29;36849;-82
2023/05/07 12:30:36;;;;;;;13.27;11.18;;;22.30;99.90;;;;;;4908017;29;37966;-82
2023/05/07 12:33:02;;;;;;;12.40;9.45;;;21.90;99.90;;;;;;4891436;29;38293;-82